Time;durP1;ratioP1;P1;durP2;ratioP2;P2;SDS_P1;SDS_P2;PMS_P1;PMS_P2;Temp;Humidity;BMP_temperature;BMP_pressure;BME280_temperature;BME280_humidity;BME280_pressure;Samples;Min_cycle;Max_cycle;Signal;HPM_P1;HPM_P2
2024/01/21 00:12:05;;;;;;;5.35;3.55;;;;;;;20.04;45.39;101798.34;41380412;28;20050;-74
2024/01/21 00:32:05;;;;;;;3.72;3.30;;;;;;;20.11;44.99;101793.66;41374845;28;20038;-75
2024/01/21 00:52:06;;;;;;;3.92;3.42;;;;;;;20.12;44.60;101805.88;41400240;28;20058;-75
2024/01/21 01:12:06;;;;;;;4.28;3.20;;;;;;;20.07;44.75;101785.06;41399502;28;20046;-75
2024/01/21 01:32:07;;;;;;;4.07;3.00;;;;;;;20.09;44.66;101777.97;41387313;28;20571;-75
2024/01/21 01:52:12;;;;;;;3.53;2.97;;;;;;;20.04;44.42;101800.16;41389096;28;20050;-75
2024/01/21 02:12:13;;;;;;;4.75;2.80;;;;;;;20.09;44.55;101814.78;41387821;28;20049;-74
2024/01/21 02:32:14;;;;;;;3.67;2.78;;;;;;;20.12;44.47;101833.00;41407286;28;20165;-76
2024/01/21 02:52:15;;;;;;;2.97;2.67;;;;;;;20.08;44.54;101838.50;41361449;28;20038;-74
2024/01/21 03:12:15;;;;;;;3.33;2.70;;;;;;;20.12;44.34;101832.19;41378222;28;20064;-74
2024/01/21 03:32:16;;;;;;;4.95;2.88;;;;;;;20.11;44.25;101877.81;41368227;28;20127;-74
2024/01/21 03:52:17;;;;;;;2.78;2.33;;;;;;;20.13;44.09;101886.47;41379982;28;20125;-75
2024/01/21 04:12:18;;;;;;;3.05;2.53;;;;;;;20.20;44.02;101887.00;41375801;28;20049;-69
2024/01/21 04:32:18;;;;;;;3.50;2.63;;;;;;;20.13;44.14;101884.69;41369600;28;20097;-75
2024/01/21 04:52:21;;;;;;;2.92;2.45;;;;;;;20.16;43.72;101881.06;41368708;28;20089;-70
2024/01/21 05:12:23;;;;;;;2.85;2.50;;;;;;;20.18;43.74;101897.63;41371537;28;20096;-75
2024/01/21 05:32:25;;;;;;;4.53;2.75;;;;;;;20.66;42.83;101915.44;41389083;28;20152;-74
2024/01/21 05:52:25;;;;;;;3.22;2.63;;;;;;;20.71;41.97;101943.22;41401392;28;20065;-73
2024/01/21 06:12:26;;;;;;;2.60;2.40;;;;;;;20.85;42.66;101968.00;41388023;28;20073;-73
2024/01/21 06:32:26;;;;;;;3.63;2.50;;;;;;;20.84;41.95;101984.75;41383360;28;20457;-69
2024/01/21 06:52:26;;;;;;;9.63;2.80;;;;;;;20.97;43.24;102003.41;41373763;28;20296;-69
2024/01/21 07:12:27;;;;;;;8.75;3.08;;;;;;;21.29;44.04;102009.66;41368413;28;20050;-69
2024/01/21 07:32:27;;;;;;;7.65;3.38;;;;;;;21.56;44.28;102038.13;41348038;28;20048;-69
2024/01/21 07:52:28;;;;;;;9.32;4.43;;;;;;;21.35;43.07;102034.81;41372597;28;20129;-72
2024/01/21 08:12:28;;;;;;;7.43;3.78;;;;;;;21.51;43.91;102055.97;41367732;28;20115;-72
2024/01/21 08:32:28;;;;;;;122.13;65.47;;;;;;;21.49;44.42;102078.91;41375572;28;20401;-72
2024/01/21 08:52:29;;;;;;;96.55;53.10;;;;;;;21.53;43.97;102112.09;41370258;28;20836;-72
2024/01/21 09:12:31;;;;;;;81.65;46.30;;;;;;;21.43;44.09;102125.75;41389515;28;20066;-71
2024/01/21 09:32:32;;;;;;;70.35;42.10;;;;;;;21.55;43.64;102136.59;41406027;28;20137;-74
2024/01/21 09:52:32;;;;;;;61.38;37.30;;;;;;;21.54;43.05;102135.72;41395355;28;20060;-72
2024/01/21 10:12:33;;;;;;;57.88;34.88;;;;;;;21.62;43.10;102131.88;41402116;28;20043;-72
2024/01/21 10:32:34;;;;;;;53.55;31.80;;;;;;;21.71;42.65;102132.25;41385961;28;20041;-73
2024/01/21 10:52:36;;;;;;;43.42;28.55;;;;;;;21.93;42.25;102132.91;41376879;28;20060;-73
2024/01/21 11:12:37;;;;;;;41.72;25.90;;;;;;;22.03;42.47;102120.94;41369872;28;20104;-75
2024/01/21 11:32:41;;;;;;;40.08;24.95;;;;;;;22.43;43.22;102100.31;41376957;28;20057;-72
2024/01/21 11:52:42;;;;;;;34.67;22.50;;;;;;;22.49;43.60;102109.69;41375397;28;20038;-72
2024/01/21 12:12:43;;;;;;;29.88;19.90;;;;;;;22.43;43.27;102086.28;41376881;28;20065;-74
2024/01/21 12:32:44;;;;;;;28.20;18.55;;;;;;;22.49;42.85;102091.22;41361649;28;20042;-73
2024/01/21 12:52:44;;;;;;;24.63;15.25;;;;;;;22.72;41.87;102087.28;41381219;28;20453;-75
2024/01/21 13:12:45;;;;;;;25.02;14.52;;;;;;;22.58;41.47;102101.22;41385570;28;20042;-78
2024/01/21 13:32:46;;;;;;;20.17;13.07;;;;;;;22.52;41.16;102093.66;41419923;28;20050;-86
2024/01/21 13:52:46;;;;;;;18.13;11.82;;;;;;;22.42;42.48;102092.50;41436993;28;20046;-80
2024/01/21 14:12:48;;;;;;;15.35;10.80;;;;;;;22.20;42.91;102073.41;41441601;28;20037;-82
2024/01/21 14:32:49;;;;;;;13.73;10.40;;;;;;;22.08;43.05;102116.25;41450249;28;20042;-80
2024/01/21 14:52:50;;;;;;;15.25;10.07;;;;;;;21.96;43.93;102119.56;41418748;28;20080;-80
2024/01/21 15:12:52;;;;;;;15.35;9.90;;;;;;;21.88;43.86;102144.53;41437257;28;20478;-77
2024/01/21 15:32:54;;;;;;;26.95;13.23;;;;;;;21.30;42.61;102147.50;41411537;28;20052;-67
2024/01/21 15:52:56;;;;;;;31.95;12.27;;;;;;;21.21;44.97;102170.75;41380304;28;20085;-69
2024/01/21 16:12:57;;;;;;;24.70;11.32;;;;;;;21.27;45.58;102198.56;41342364;28;20038;-68
2024/01/21 16:32:57;;;;;;;25.55;12.10;;;;;;;20.94;44.21;102191.38;41367961;28;20330;-69
2024/01/21 16:53:06;;;;;;;25.52;11.45;;;;;;;21.00;44.44;102217.44;41359774;28;20038;-70
2024/01/21 17:13:07;;;;;;;16.10;10.35;;;;;;;20.77;44.22;102247.47;41218038;28;20046;-70
2024/01/21 17:33:09;;;;;;;16.15;10.40;;;;;;;20.69;44.29;102255.69;41225884;28;20034;-68
2024/01/21 17:53:11;;;;;;;24.55;11.90;;;;;;;20.59;44.33;102242.09;41295622;28;20046;-67
2024/01/21 18:13:11;;;;;;;26.35;11.98;;;;;;;20.88;45.63;102262.78;41285969;28;20061;-66
2024/01/21 18:33:12;;;;;;;26.38;12.77;;;;;;;20.86;46.85;102254.97;41229728;28;20055;-69
2024/01/21 18:53:13;;;;;;;23.77;15.00;;;;;;;20.85;50.71;102269.03;41355130;28;20046;-69
2024/01/21 19:13:15;;;;;;;24.00;16.38;;;;;;;21.02;51.18;102247.19;41375317;28;20074;-68
2024/01/21 19:33:16;;;;;;;24.00;15.73;;;;;;;20.91;49.53;102247.69;41362631;28;20066;-71
2024/01/21 19:53:18;;;;;;;21.77;15.65;;;;;;;20.84;48.73;102222.56;41379230;28;20442;-69
2024/01/21 20:13:19;;;;;;;24.75;14.57;;;;;;;20.82;48.39;102240.19;41336669;28;20040;-68
2024/01/21 20:33:21;;;;;;;21.38;15.18;;;;;;;20.77;47.83;102232.50;41337290;28;20053;-68
2024/01/21 20:53:24;;;;;;;22.38;14.43;;;;;;;20.76;47.49;102243.13;41343757;28;20520;-69
2024/01/21 21:13:25;;;;;;;28.65;17.52;;;;;;;20.21;45.46;102244.66;41380988;28;20509;-69
2024/01/21 21:33:27;;;;;;;24.33;15.80;;;;;;;20.31;46.14;102222.28;41359793;28;20051;-67
2024/01/21 21:53:27;;;;;;;20.50;14.32;;;;;;;20.30;45.87;102241.63;41290384;28;20041;-69
2024/01/21 22:13:28;;;;;;;20.63;14.60;;;;;;;20.27;46.01;102218.06;41368475;28;20049;-68
2024/01/21 22:33:28;;;;;;;17.98;13.88;;;;;;;20.12;46.97;102213.50;41378086;28;20502;-71
2024/01/21 22:53:31;;;;;;;17.73;13.15;;;;;;;20.04;47.76;102197.19;41303705;28;20486;-70
2024/01/21 23:13:31;;;;;;;17.30;13.40;;;;;;;19.99;47.67;102232.44;41356917;28;20048;-70
2024/01/21 23:33:31;;;;;;;15.77;11.98;;;;;;;19.98;47.57;102243.00;41370334;28;20130;-70
2024/01/21 23:53:32;;;;;;;16.30;12.63;;;;;;;19.98;47.72;102236.00;41362417;28;24016;-69
